createdAt,value
2017-12-13T00:01:29.679Z,21.90
2017-12-13T00:03:57.772Z,18.48
2017-12-13T00:06:25.831Z,19.50
2017-12-13T00:08:53.916Z,25.90
2017-12-13T00:11:21.992Z,19.58
2017-12-13T00:13:50.077Z,17.20
2017-12-13T00:16:18.904Z,20.33
2017-12-13T00:18:46.991Z,18.85
2017-12-13T00:21:15.064Z,22.45
2017-12-13T00:23:43.923Z,21.90
2017-12-13T00:26:12.007Z,20.25
2017-12-13T00:28:40.083Z,25.12
2017-12-13T00:31:08.175Z,19.23
2017-12-13T00:33:36.257Z,22.37
2017-12-13T00:36:04.319Z,21.50
2017-12-13T00:38:32.686Z,25.33
2017-12-13T00:41:00.748Z,19.85
2017-12-13T00:43:28.815Z,24.55
2017-12-13T00:45:57.007Z,21.40
2017-12-13T00:48:25.066Z,23.85
2017-12-13T00:50:53.151Z,19.67
2017-12-13T00:53:21.224Z,23.85
2017-12-13T00:55:49.309Z,26.17
2017-12-13T00:58:17.480Z,24.02
2017-12-13T01:00:45.548Z,24.50
2017-12-13T01:03:14.422Z,21.95
2017-12-13T01:05:42.486Z,28.25
2017-12-13T01:08:10.549Z,22.45
2017-12-13T01:10:38.627Z,29.02
2017-12-13T01:13:06.699Z,27.85
2017-12-13T01:15:34.771Z,28.40
2017-12-13T01:18:02.838Z,30.90
2017-12-13T01:20:30.912Z,26.37
2017-12-13T01:22:59.191Z,33.67
2017-12-13T01:25:27.257Z,30.55
2017-12-13T01:27:55.329Z,25.40
2017-12-13T01:30:23.389Z,26.33
2017-12-13T01:32:51.479Z,30.42
2017-12-13T01:35:19.534Z,26.67
2017-12-13T01:37:47.634Z,29.67
2017-12-13T01:40:15.803Z,22.15
2017-12-13T01:42:43.861Z,22.95
2017-12-13T01:45:11.938Z,22.62
2017-12-13T01:47:39.994Z,22.33
2017-12-13T01:50:08.062Z,21.62
2017-12-13T01:52:36.130Z,25.12
2017-12-13T01:55:04.203Z,22.83
2017-12-13T01:57:32.973Z,29.75
2017-12-13T02:00:01.051Z,21.75
2017-12-13T02:02:29.138Z,32.15
2017-12-13T02:04:57.215Z,23.02
2017-12-13T02:07:25.281Z,23.27
2017-12-13T02:09:53.346Z,29.67
2017-12-13T02:12:21.824Z,36.75
2017-12-13T02:14:49.902Z,30.27
2017-12-13T02:17:17.979Z,27.20
2017-12-13T02:19:46.067Z,26.25
2017-12-13T02:22:15.019Z,25.15
2017-12-13T02:24:43.116Z,27.42
2017-12-13T02:27:11.192Z,26.77
2017-12-13T02:29:40.260Z,28.90
2017-12-13T02:32:08.334Z,27.62
2017-12-13T02:34:37.317Z,27.55
2017-12-13T02:37:05.396Z,43.35
2017-12-13T02:39:33.453Z,39.75
2017-12-13T02:42:01.527Z,30.88
2017-12-13T02:44:29.608Z,31.62
2017-12-13T02:46:57.708Z,29.23
2017-12-13T02:49:25.777Z,31.12
2017-12-13T02:51:53.846Z,33.70
2017-12-13T02:54:21.921Z,32.42
2017-12-13T02:56:49.993Z,32.90
2017-12-13T02:59:18.060Z,31.42
2017-12-13T03:01:46.134Z,33.35
2017-12-13T03:04:14.209Z,39.00
2017-12-13T03:06:43.050Z,26.73
2017-12-13T03:09:11.106Z,27.98
2017-12-13T03:11:39.192Z,32.08
2017-12-13T03:14:07.468Z,25.37
2017-12-13T03:16:35.572Z,23.02
2017-12-13T03:19:03.648Z,32.80
2017-12-13T03:21:31.749Z,25.35
2017-12-13T03:24:00.580Z,25.27
2017-12-13T03:26:28.654Z,28.15
2017-12-13T03:28:56.726Z,28.20
2017-12-13T03:31:24.799Z,30.25
2017-12-13T03:33:52.963Z,30.17
2017-12-13T03:36:21.035Z,26.80
2017-12-13T03:38:49.109Z,34.38
2017-12-13T03:41:17.187Z,33.15
2017-12-13T03:43:45.455Z,23.50
2017-12-13T03:46:13.532Z,32.70
2017-12-13T03:48:41.607Z,29.33
2017-12-13T03:51:09.678Z,30.83
2017-12-13T03:53:37.746Z,33.35
2017-12-13T03:56:05.824Z,24.08
2017-12-13T03:58:33.893Z,28.10
2017-12-13T04:01:01.971Z,32.30
2017-12-13T04:03:30.045Z,22.20
2017-12-13T04:05:58.141Z,25.23
2017-12-13T04:08:26.231Z,28.55
2017-12-13T04:10:54.298Z,24.48
2017-12-13T04:13:22.370Z,32.30
2017-12-13T04:15:50.444Z,25.62
2017-12-13T04:18:19.261Z,27.27
2017-12-13T04:20:47.325Z,25.75
2017-12-13T04:23:15.382Z,35.35
2017-12-13T04:25:43.463Z,39.40
2017-12-13T04:28:11.533Z,26.12
2017-12-13T04:30:39.631Z,24.17
2017-12-13T04:33:07.705Z,22.55
2017-12-13T04:35:35.858Z,22.48
2017-12-13T04:38:03.930Z,24.23
2017-12-13T04:40:32.004Z,21.60
2017-12-13T04:43:00.895Z,23.48
2017-12-13T04:45:28.967Z,22.05
2017-12-13T04:47:57.039Z,27.58
2017-12-13T04:50:25.090Z,24.42
2017-12-13T04:52:53.155Z,22.45
2017-12-13T04:55:21.226Z,21.00
2017-12-13T04:57:49.299Z,22.75
2017-12-13T05:00:17.370Z,34.35
2017-12-13T05:02:45.438Z,25.62
2017-12-13T05:05:14.206Z,20.62
2017-12-13T05:07:42.266Z,26.48
2017-12-13T05:10:10.379Z,21.52
2017-12-13T05:12:38.451Z,25.25
2017-12-13T05:15:06.520Z,25.58
2017-12-13T05:17:34.594Z,24.12
2017-12-13T05:20:02.679Z,28.75
2017-12-13T05:22:30.777Z,28.70
2017-12-13T05:24:59.602Z,26.37
2017-12-13T05:27:27.679Z,24.15
2017-12-13T05:29:55.768Z,26.80
2017-12-13T05:32:24.411Z,25.90
2017-12-13T05:34:52.495Z,27.52
2017-12-13T05:37:20.604Z,31.75
2017-12-13T05:39:48.670Z,30.20
2017-12-13T05:42:16.738Z,29.00
2017-12-13T05:44:44.911Z,27.40
2017-12-13T05:47:13.043Z,25.35
2017-12-13T05:49:41.256Z,24.65
2017-12-13T05:52:09.331Z,25.00
2017-12-13T05:54:37.442Z,23.95
2017-12-13T05:57:06.274Z,26.70
2017-12-13T05:59:34.365Z,28.42
2017-12-13T06:02:02.423Z,25.08
2017-12-13T06:04:30.506Z,23.27
2017-12-13T06:06:58.567Z,29.58
2017-12-13T06:09:26.645Z,31.70
2017-12-13T06:11:55.558Z,25.73
2017-12-13T06:14:24.395Z,24.90
2017-12-13T06:16:52.466Z,23.70
2017-12-13T06:19:20.559Z,33.15
2017-12-13T06:21:48.626Z,25.70
2017-12-13T06:24:16.698Z,23.15
2017-12-13T06:26:44.806Z,23.10
2017-12-13T06:29:14.422Z,26.58
2017-12-13T06:31:42.485Z,28.95
2017-12-13T06:34:11.321Z,25.90
2017-12-13T06:36:39.932Z,26.05
2017-12-13T06:39:08.008Z,28.33
2017-12-13T06:41:36.154Z,28.08
2017-12-13T06:44:04.287Z,31.65
2017-12-13T06:46:32.505Z,27.42
2017-12-13T06:49:00.698Z,25.08
2017-12-13T06:51:28.780Z,25.10
2017-12-13T06:53:56.854Z,25.40
2017-12-13T06:56:25.691Z,28.23
2017-12-13T06:58:53.989Z,33.00
2017-12-13T07:01:22.064Z,29.33
2017-12-13T07:03:50.160Z,29.65
2017-12-13T07:06:18.995Z,33.00
2017-12-13T07:08:47.058Z,33.53
2017-12-13T07:11:15.164Z,34.28
2017-12-13T07:13:43.936Z,30.52
2017-12-13T07:16:12.003Z,26.95
2017-12-13T07:18:40.079Z,27.77
2017-12-13T07:21:09.042Z,28.23
2017-12-13T07:23:37.140Z,38.17
2017-12-13T07:26:05.206Z,32.75
2017-12-13T07:28:33.288Z,26.42
2017-12-13T07:31:01.360Z,25.30
2017-12-13T07:33:29.430Z,26.30
2017-12-13T07:35:57.503Z,22.65
2017-12-13T07:38:25.572Z,23.23
2017-12-13T07:40:54.412Z,31.05
2017-12-13T07:43:22.544Z,23.62
2017-12-13T07:45:50.620Z,21.23
2017-12-13T07:48:18.783Z,21.15
2017-12-13T07:50:46.859Z,24.70
2017-12-13T07:53:14.915Z,20.25
2017-12-13T07:55:43.002Z,18.37
2017-12-13T07:58:11.066Z,24.12
2017-12-13T08:00:39.136Z,24.05
2017-12-13T08:03:07.199Z,24.83
2017-12-13T08:05:35.291Z,17.58
2017-12-13T08:08:05.047Z,16.25
2017-12-13T08:10:33.156Z,17.70
2017-12-13T08:13:01.236Z,18.42
2017-12-13T08:15:29.303Z,17.55
2017-12-13T08:17:57.375Z,16.62
2017-12-13T08:20:25.441Z,16.12
2017-12-13T08:22:53.511Z,16.95
2017-12-13T08:25:21.586Z,18.48
2017-12-13T08:27:49.633Z,12.00
2017-12-13T08:30:17.706Z,12.37
2017-12-13T08:32:46.271Z,14.25
2017-12-13T08:35:14.338Z,14.23
2017-12-13T08:37:42.405Z,12.70
2017-12-13T08:40:10.471Z,16.58
2017-12-13T08:42:39.488Z,13.13
2017-12-13T08:45:07.562Z,11.10
2017-12-13T08:47:35.636Z,21.98
2017-12-13T08:50:03.698Z,15.43
2017-12-13T08:52:31.779Z,14.13
2017-12-13T08:54:59.838Z,12.73
2017-12-13T08:57:27.919Z,12.43
2017-12-13T08:59:56.085Z,16.42
2017-12-13T09:02:24.258Z,13.23
2017-12-13T09:04:52.434Z,12.88
2017-12-13T09:07:21.423Z,17.33
2017-12-13T09:09:49.489Z,19.02
2017-12-13T09:12:17.580Z,14.27
2017-12-13T09:14:45.638Z,13.05
2017-12-13T09:17:13.710Z,14.65
2017-12-13T09:19:41.781Z,11.40
2017-12-13T09:22:09.839Z,13.40
2017-12-13T09:24:37.915Z,16.48
2017-12-13T09:27:05.977Z,11.95
2017-12-13T09:29:34.063Z,11.40
2017-12-13T09:32:02.120Z,12.45
2017-12-13T09:34:30.207Z,14.10
2017-12-13T09:36:58.634Z,10.65
2017-12-13T09:39:27.574Z,9.50
2017-12-13T09:41:55.748Z,11.27
2017-12-13T09:44:23.811Z,11.38
2017-12-13T09:46:51.874Z,14.85
2017-12-13T09:49:19.978Z,9.35
2017-12-13T09:51:48.051Z,13.15
2017-12-13T09:54:16.105Z,13.52
2017-12-13T09:56:44.267Z,9.82
2017-12-13T09:59:12.343Z,10.82
2017-12-13T10:01:40.480Z,15.27
2017-12-13T10:04:08.591Z,12.75
2017-12-13T10:06:36.657Z,9.80
2017-12-13T10:09:04.772Z,11.70
2017-12-13T10:11:33.812Z,8.80
2017-12-13T10:14:01.998Z,10.45
2017-12-13T10:16:30.058Z,15.10
2017-12-13T10:18:58.152Z,13.65
2017-12-13T10:21:26.209Z,9.68
2017-12-13T10:23:55.176Z,11.65
2017-12-13T10:26:23.268Z,10.80
2017-12-13T10:28:51.349Z,13.45
2017-12-13T10:31:19.430Z,10.27
2017-12-13T10:33:47.494Z,9.65
2017-12-13T10:36:15.567Z,13.30
2017-12-13T10:38:43.634Z,8.80
2017-12-13T10:41:11.709Z,8.60
2017-12-13T10:43:39.774Z,8.68
2017-12-13T10:46:07.850Z,8.38
2017-12-13T10:48:36.718Z,10.43
2017-12-13T10:51:04.789Z,13.07
2017-12-13T10:53:42.819Z,8.82
2017-12-13T10:56:10.882Z,9.15
2017-12-13T10:58:40.319Z,8.20
2017-12-13T11:01:08.382Z,7.70
2017-12-13T11:03:36.450Z,14.27
2017-12-13T11:06:05.283Z,10.48
2017-12-13T11:08:33.355Z,9.65
2017-12-13T11:11:01.449Z,9.75
2017-12-13T11:13:29.522Z,9.90
2017-12-13T11:15:57.591Z,9.60
2017-12-13T11:18:25.664Z,11.68
2017-12-13T11:20:53.814Z,9.25
2017-12-13T11:23:21.888Z,8.90
2017-12-13T11:25:49.961Z,9.07
2017-12-13T11:28:18.029Z,10.40
2017-12-13T11:30:46.117Z,9.83
2017-12-13T11:33:14.199Z,10.27
2017-12-13T11:35:43.030Z,9.93
2017-12-13T11:38:11.096Z,9.37
2017-12-13T11:40:39.166Z,10.27
2017-12-13T11:43:07.295Z,9.20
2017-12-13T11:45:35.359Z,14.20
2017-12-13T11:48:03.422Z,8.43
2017-12-13T11:50:31.491Z,11.60
2017-12-13T11:52:59.571Z,9.70
2017-12-13T13:17:25.262Z,10.03
2017-12-13T13:19:53.331Z,11.83
2017-12-13T13:22:21.419Z,12.63
2017-12-13T13:24:49.502Z,7.73
2017-12-13T13:27:17.591Z,11.00
2017-12-13T13:29:46.491Z,12.50
2017-12-13T13:32:14.531Z,11.47
2017-12-13T13:34:42.818Z,11.67
2017-12-13T13:37:10.950Z,10.60
2017-12-13T13:39:39.139Z,14.33
2017-12-13T13:42:07.227Z,13.00
2017-12-13T13:44:35.294Z,11.12
2017-12-13T13:47:03.373Z,10.30
2017-12-13T13:49:31.445Z,15.73
2017-12-13T13:51:59.518Z,12.88
2017-12-13T13:54:27.650Z,10.68
2017-12-13T13:56:56.159Z,10.50
2017-12-13T13:59:24.236Z,11.50
2017-12-13T14:01:54.744Z,13.93
2017-12-13T14:04:23.667Z,20.58
2017-12-13T14:06:51.718Z,9.32
2017-12-13T14:09:19.800Z,12.90
2017-12-13T14:11:47.894Z,9.57
2017-12-13T14:14:16.735Z,9.07
2017-12-13T14:16:44.809Z,9.18
2017-12-13T14:19:12.891Z,10.98
2017-12-13T14:21:40.974Z,11.70
2017-12-13T14:24:09.048Z,13.43
2017-12-13T14:26:37.206Z,14.02
2017-12-13T14:29:05.274Z,12.93
2017-12-13T14:31:33.338Z,7.95
2017-12-13T14:34:01.408Z,11.68
2017-12-13T14:36:29.555Z,12.65
2017-12-13T14:38:57.662Z,11.63
2017-12-13T14:41:25.727Z,9.10
2017-12-13T14:43:53.799Z,10.23
2017-12-13T14:46:21.966Z,10.70
2017-12-13T14:48:50.035Z,8.73
2017-12-13T14:51:20.784Z,12.50
2017-12-13T14:53:49.274Z,10.23
2017-12-13T14:56:18.110Z,8.48
2017-12-13T14:58:46.188Z,13.55
2017-12-13T15:01:14.264Z,11.48
2017-12-13T15:03:42.322Z,10.98
2017-12-13T15:06:10.838Z,23.58
2017-12-13T15:08:38.909Z,8.55
2017-12-13T15:11:06.959Z,9.85
2017-12-13T15:13:35.043Z,9.07
2017-12-13T15:16:03.116Z,9.43
2017-12-13T15:18:31.175Z,13.02
2017-12-13T15:20:59.237Z,13.15
2017-12-13T15:23:27.299Z,14.65
2017-12-13T15:25:55.359Z,8.30
2017-12-13T15:28:23.425Z,13.73
2017-12-13T15:30:51.507Z,20.62
2017-12-13T15:33:19.558Z,16.02
2017-12-13T15:35:47.635Z,17.55
2017-12-13T15:38:15.690Z,26.10
2017-12-13T15:40:43.777Z,16.20
2017-12-13T15:43:11.838Z,13.02
2017-12-13T15:45:39.909Z,10.57
2017-12-13T15:48:07.987Z,17.23
2017-12-13T15:50:36.140Z,16.10
2017-12-13T15:53:04.975Z,14.77
2017-12-13T15:55:33.044Z,14.40
2017-12-13T15:58:01.148Z,9.80
2017-12-13T16:00:29.337Z,13.55
2017-12-13T16:02:58.179Z,16.02
2017-12-13T16:05:26.262Z,17.42
2017-12-13T16:07:54.327Z,15.40
2017-12-13T16:10:22.382Z,6.82
2017-12-13T16:12:50.450Z,19.55
2017-12-13T16:15:18.593Z,19.45
2017-12-13T16:17:47.419Z,13.50
2017-12-13T16:20:15.496Z,14.23
2017-12-13T16:22:43.572Z,19.77
2017-12-13T16:25:11.629Z,27.17
2017-12-13T16:27:39.699Z,8.85
2017-12-13T16:30:07.754Z,12.27
2017-12-13T16:32:35.827Z,41.58
2017-12-13T16:35:04.142Z,15.90
2017-12-13T16:37:32.214Z,45.15
2017-12-13T16:40:00.413Z,24.27
2017-12-13T16:42:29.243Z,12.10
2017-12-13T16:44:57.316Z,23.48
2017-12-13T16:47:25.384Z,22.00
2017-12-13T16:49:54.373Z,27.85
2017-12-13T16:52:22.438Z,14.23
2017-12-13T16:54:50.496Z,17.25
2017-12-13T16:57:19.526Z,15.38
2017-12-13T16:59:47.585Z,11.70
2017-12-13T17:02:15.655Z,12.93
2017-12-13T17:04:43.725Z,12.23
2017-12-13T17:07:11.800Z,11.82
2017-12-13T17:09:39.871Z,12.45
2017-12-13T17:12:07.935Z,8.70
2017-12-13T17:14:36.933Z,12.02
2017-12-13T17:17:05.008Z,10.35
2017-12-13T17:19:33.094Z,15.98
2017-12-13T17:22:01.259Z,11.25
2017-12-13T17:24:29.363Z,8.90
2017-12-13T17:26:58.201Z,11.10
2017-12-13T17:29:26.294Z,12.00
2017-12-13T17:31:54.376Z,9.85
2017-12-13T17:34:22.448Z,12.55
2017-12-13T17:36:50.508Z,11.52
2017-12-13T17:39:18.576Z,17.58
2017-12-13T17:41:46.648Z,12.20
2017-12-13T17:44:14.736Z,12.90
2017-12-13T17:46:42.907Z,13.15
2017-12-13T17:49:10.957Z,13.57
2017-12-13T17:51:39.019Z,10.88
2017-12-13T17:54:07.103Z,15.98
2017-12-13T17:56:35.190Z,10.68
2017-12-13T17:59:03.246Z,9.88
2017-12-13T18:01:31.313Z,12.40
2017-12-13T18:03:59.396Z,13.82
2017-12-13T18:06:27.469Z,12.23
2017-12-13T18:08:55.548Z,15.77
2017-12-13T18:11:23.606Z,13.65
2017-12-13T18:13:51.679Z,13.85
2017-12-13T18:16:19.952Z,12.68
2017-12-13T18:18:48.021Z,9.70
2017-12-13T18:21:16.079Z,12.07
2017-12-13T18:23:44.160Z,13.55
2017-12-13T18:26:12.222Z,10.20
2017-12-13T18:28:40.278Z,10.80
2017-12-13T18:31:08.350Z,9.98
2017-12-13T18:33:36.415Z,11.63
2017-12-13T18:36:04.494Z,12.95
2017-12-13T18:38:32.561Z,8.70
2017-12-13T18:41:00.640Z,9.38
2017-12-13T18:43:28.710Z,10.15
2017-12-13T18:45:56.785Z,10.88
2017-12-13T18:48:24.859Z,10.80
2017-12-13T18:50:53.075Z,12.02
2017-12-13T18:53:21.201Z,12.63
2017-12-13T18:55:49.378Z,12.30
2017-12-13T18:58:17.452Z,12.35
2017-12-13T19:00:45.522Z,11.65
2017-12-13T19:03:13.581Z,12.55
2017-12-13T19:05:41.676Z,10.55
2017-12-13T19:08:09.724Z,13.25
2017-12-13T19:10:37.793Z,11.07
2017-12-13T19:13:05.869Z,10.18
2017-12-13T19:15:33.946Z,16.30
2017-12-13T19:18:02.660Z,11.90
2017-12-13T19:20:31.494Z,12.93
2017-12-13T19:22:59.567Z,10.48
2017-12-13T19:25:27.626Z,21.30
2017-12-13T19:27:55.687Z,18.60
2017-12-13T19:30:23.761Z,15.10
2017-12-13T19:32:51.823Z,13.48
2017-12-13T19:35:19.889Z,12.65
2017-12-13T19:37:48.734Z,18.73
2017-12-13T19:40:16.815Z,15.10
2017-12-13T19:42:44.882Z,15.40
2017-12-13T19:45:13.150Z,19.10
2017-12-13T19:47:41.224Z,15.48
2017-12-13T19:50:09.413Z,15.20
2017-12-13T19:52:38.242Z,18.02
2017-12-13T19:55:06.313Z,14.68
2017-12-13T19:57:34.370Z,14.65
2017-12-13T20:00:02.456Z,21.05
2017-12-13T20:02:30.527Z,15.95
2017-12-13T20:04:58.598Z,18.98
2017-12-13T20:07:26.670Z,18.67
2017-12-13T20:09:54.774Z,18.70
2017-12-13T20:12:22.847Z,22.87
2017-12-13T20:14:51.005Z,31.33
2017-12-13T20:17:19.716Z,19.37
2017-12-13T20:19:47.861Z,22.65
2017-12-13T20:22:15.910Z,21.33
2017-12-13T20:24:44.015Z,16.95
2017-12-13T20:27:12.095Z,15.52
2017-12-13T20:29:40.178Z,16.75
2017-12-13T20:32:09.028Z,18.00
2017-12-13T20:34:37.073Z,16.23
2017-12-13T20:37:05.148Z,18.25
2017-12-13T20:39:33.203Z,17.95
2017-12-13T20:42:01.265Z,15.05
2017-12-13T20:44:29.326Z,17.30
2017-12-13T20:46:58.170Z,17.37
2017-12-13T20:49:26.225Z,20.17
2017-12-13T20:51:54.295Z,20.20
2017-12-13T20:54:22.355Z,17.35
2017-12-13T20:56:50.430Z,17.45
2017-12-13T20:59:18.490Z,12.85
2017-12-13T21:01:46.566Z,18.25
2017-12-13T21:04:14.614Z,19.85
2017-12-13T21:06:42.687Z,22.92
2017-12-13T21:09:10.762Z,22.45
2017-12-13T21:11:39.121Z,19.17
2017-12-13T21:14:07.966Z,15.50
2017-12-13T21:16:36.043Z,15.95
2017-12-13T21:19:04.113Z,20.75
2017-12-13T21:21:32.174Z,16.73
2017-12-13T21:24:00.252Z,14.75
2017-12-13T21:26:28.307Z,20.80
2017-12-13T21:28:56.366Z,12.82
2017-12-13T21:31:24.467Z,13.77
2017-12-13T21:33:52.534Z,12.27
2017-12-13T21:36:20.599Z,12.32
2017-12-13T21:38:48.675Z,13.18
2017-12-13T21:41:16.740Z,13.57
2017-12-13T21:43:44.795Z,15.57
2017-12-13T21:46:12.868Z,13.10
2017-12-13T21:48:40.952Z,12.70
2017-12-13T21:51:09.936Z,12.45
2017-12-13T21:53:38.008Z,13.23
2017-12-13T21:56:11.657Z,11.98
2017-12-13T21:58:40.482Z,15.70
2017-12-13T22:01:08.556Z,13.73
2017-12-13T22:03:36.671Z,13.68
2017-12-13T22:06:04.743Z,12.30
2017-12-13T22:08:32.791Z,13.00
2017-12-13T22:11:00.842Z,14.75
2017-12-13T22:13:28.908Z,14.13
2017-12-13T22:15:56.987Z,15.05
2017-12-13T22:18:25.030Z,15.65
2017-12-13T22:20:53.123Z,14.00
2017-12-13T22:23:21.176Z,13.20
2017-12-13T22:25:49.236Z,16.00
2017-12-13T22:28:17.322Z,11.65
2017-12-13T22:30:45.389Z,11.60
2017-12-13T22:33:13.466Z,20.92
2017-12-13T22:35:42.290Z,14.95
2017-12-13T22:38:10.498Z,23.45
2017-12-13T22:40:38.534Z,19.60
2017-12-13T22:43:06.602Z,12.50
2017-12-13T22:45:34.659Z,12.52
2017-12-13T22:48:02.721Z,11.80
2017-12-13T22:50:30.778Z,13.38
2017-12-13T22:52:58.841Z,12.10
2017-12-13T22:55:26.909Z,13.15
2017-12-13T22:57:54.969Z,10.02
2017-12-13T23:00:23.044Z,12.30
2017-12-13T23:02:51.100Z,12.60
2017-12-13T23:05:20.843Z,13.18
2017-12-13T23:07:49.047Z,13.80
2017-12-13T23:10:17.223Z,16.58
2017-12-13T23:12:45.359Z,18.40
2017-12-13T23:15:13.464Z,15.00
2017-12-13T23:17:41.535Z,11.18
2017-12-13T23:20:09.605Z,12.50
2017-12-13T23:22:37.656Z,10.18
2017-12-13T23:25:05.749Z,11.38
2017-12-13T23:27:33.810Z,12.10
2017-12-13T23:30:01.870Z,10.52
2017-12-13T23:32:29.934Z,10.85
2017-12-13T23:34:57.999Z,14.65
2017-12-13T23:37:26.064Z,10.70
2017-12-13T23:39:54.146Z,19.02
2017-12-13T23:42:22.206Z,20.40
2017-12-13T23:44:50.628Z,28.90
2017-12-13T23:47:18.790Z,14.00
2017-12-13T23:49:46.855Z,22.52
2017-12-13T23:52:14.926Z,11.50
2017-12-13T23:54:42.988Z,13.20
2017-12-13T23:57:11.042Z,21.62
2017-12-13T23:59:39.099Z,19.30
